createdAt,value
2018-04-26T00:01:39.706Z,9.40
2018-04-26T00:03:40.667Z,10.43
2018-04-26T00:05:41.611Z,10.90
2018-04-26T00:07:42.946Z,11.43
2018-04-26T00:09:43.914Z,9.75
2018-04-26T00:11:44.898Z,10.30
2018-04-26T00:13:45.890Z,10.60
2018-04-26T00:15:46.843Z,11.27
2018-04-26T00:17:47.791Z,10.40
2018-04-26T00:19:48.949Z,11.27
2018-04-26T00:21:50.004Z,10.65
2018-04-26T00:23:51.697Z,11.25
2018-04-26T00:25:52.722Z,11.57
2018-04-26T00:27:53.914Z,12.07
2018-04-26T00:29:55.939Z,11.30
2018-04-26T00:31:57.420Z,12.05
2018-04-26T00:33:58.434Z,12.50
2018-04-26T00:35:59.395Z,11.53
2018-04-26T00:38:01.387Z,12.23
2018-04-26T00:40:02.605Z,13.27
2018-04-26T00:42:03.943Z,12.45
2018-04-26T00:44:05.931Z,12.50
2018-04-26T00:46:07.808Z,13.30
2018-04-26T00:48:08.892Z,12.43
2018-04-26T00:50:10.367Z,12.68
2018-04-26T00:52:12.333Z,14.10
2018-04-26T00:54:13.769Z,14.15
2018-04-26T00:56:14.707Z,14.40
2018-04-26T00:58:15.931Z,13.53
2018-04-26T01:00:16.972Z,13.32
2018-04-26T01:02:17.931Z,14.50
2018-04-26T01:04:18.861Z,14.23
2018-04-26T01:06:19.864Z,15.07
2018-04-26T01:08:21.182Z,14.43
2018-04-26T01:10:22.118Z,16.10
2018-04-26T01:12:23.082Z,16.97
2018-04-26T01:14:24.398Z,16.47
2018-04-26T01:16:25.361Z,16.30
2018-04-26T01:18:26.703Z,17.30
2018-04-26T01:20:28.029Z,16.37
2018-04-26T01:22:29.346Z,17.00
2018-04-26T01:24:30.314Z,16.15
2018-04-26T01:26:31.659Z,17.77
2018-04-26T01:28:32.973Z,16.73
2018-04-26T01:30:33.931Z,17.95
2018-04-26T01:32:35.278Z,16.13
2018-04-26T01:34:36.601Z,16.45
2018-04-26T01:36:49.835Z,18.55
2018-04-26T01:38:51.175Z,18.48
2018-04-26T01:40:52.119Z,17.65
2018-04-26T01:42:53.449Z,18.07
2018-04-26T01:44:54.393Z,18.42
2018-04-26T01:46:55.725Z,16.77
2018-04-26T01:48:56.968Z,15.57
2018-04-26T01:50:57.930Z,16.23
2018-04-26T01:52:58.874Z,16.30
2018-04-26T01:54:59.830Z,17.50
2018-04-26T01:57:00.801Z,14.30
2018-04-26T01:59:01.760Z,14.50
2018-04-26T02:01:03.075Z,14.93
2018-04-26T02:03:04.042Z,15.02
2018-04-26T02:05:05.446Z,14.47
2018-04-26T02:07:06.416Z,14.00
2018-04-26T02:09:07.746Z,14.17
2018-04-26T02:11:09.089Z,13.13
2018-04-26T02:13:10.418Z,11.68
2018-04-26T02:15:11.383Z,13.65
2018-04-26T02:17:12.343Z,12.17
2018-04-26T02:19:13.323Z,12.63
2018-04-26T02:21:14.284Z,12.90
2018-04-26T02:23:15.619Z,11.00
2018-04-26T02:25:17.036Z,12.77
2018-04-26T02:27:18.006Z,12.02
2018-04-26T02:29:19.328Z,12.40
2018-04-26T02:31:20.303Z,11.25
2018-04-26T02:33:21.258Z,11.20
2018-04-26T02:35:22.203Z,11.07
2018-04-26T02:37:23.451Z,11.60
2018-04-26T02:39:24.408Z,12.23
2018-04-26T02:41:25.359Z,11.27
2018-04-26T02:43:26.709Z,11.23
2018-04-26T02:45:27.685Z,11.23
2018-04-26T02:47:28.643Z,11.83
2018-04-26T02:49:29.919Z,10.33
2018-04-26T02:51:30.895Z,10.93
2018-04-26T02:53:31.847Z,10.83
2018-04-26T02:55:32.817Z,9.80
2018-04-26T02:57:34.183Z,11.80
2018-04-26T02:59:35.138Z,10.98
2018-04-26T03:01:36.106Z,11.77
2018-04-26T03:03:37.212Z,12.00
2018-04-26T03:05:38.180Z,11.23
2018-04-26T03:07:39.128Z,11.37
2018-04-26T03:09:40.447Z,11.33
2018-04-26T03:11:41.398Z,12.43
2018-04-26T03:13:42.842Z,12.33
2018-04-26T03:15:44.170Z,11.30
2018-04-26T03:17:45.129Z,11.73
2018-04-26T03:19:46.614Z,11.93
2018-04-26T03:21:47.563Z,11.40
2018-04-26T03:23:48.496Z,12.47
2018-04-26T03:25:49.464Z,13.50
2018-04-26T03:27:50.414Z,13.43
2018-04-26T03:29:51.757Z,13.20
2018-04-26T03:31:53.080Z,12.90
2018-04-26T03:33:55.150Z,13.07
2018-04-26T03:35:56.470Z,12.63
2018-04-26T03:37:57.435Z,12.98
2018-04-26T03:39:58.763Z,12.63
2018-04-26T03:42:00.295Z,14.18
2018-04-26T03:44:01.251Z,14.43
2018-04-26T03:46:02.764Z,12.90
2018-04-26T03:48:03.727Z,12.85
2018-04-26T03:50:04.674Z,14.13
2018-04-26T03:52:06.003Z,12.90
2018-04-26T03:54:07.232Z,14.60
2018-04-26T03:56:08.199Z,15.27
2018-04-26T03:58:09.186Z,15.80
2018-04-26T04:00:22.466Z,14.93
2018-04-26T04:02:35.936Z,14.63
2018-04-26T04:04:49.446Z,15.25
2018-04-26T04:06:50.402Z,14.60
2018-04-26T04:08:51.366Z,14.60
2018-04-26T04:10:52.309Z,14.87
2018-04-26T04:12:53.633Z,17.50
2018-04-26T04:14:54.763Z,16.33
2018-04-26T04:16:55.721Z,16.23
2018-04-26T04:18:57.034Z,16.10
2018-04-26T04:20:58.004Z,15.90
2018-04-26T04:22:59.362Z,19.50
2018-04-26T04:25:00.313Z,107.65
2018-04-26T04:27:01.280Z,61.10
2018-04-26T04:29:02.624Z,35.63
2018-04-26T04:31:03.589Z,25.05
2018-04-26T04:33:04.906Z,34.77
2018-04-26T04:35:05.888Z,33.70
2018-04-26T04:37:06.844Z,17.57
2018-04-26T04:39:07.798Z,15.80
2018-04-26T04:41:08.764Z,15.30
2018-04-26T04:43:10.091Z,15.37
2018-04-26T04:45:11.517Z,14.32
2018-04-26T04:47:12.390Z,14.57
2018-04-26T04:49:13.716Z,12.17
2018-04-26T04:51:15.036Z,13.48
2018-04-26T04:53:16.009Z,13.40
2018-04-26T04:55:17.618Z,15.07
2018-04-26T04:57:18.639Z,14.13
2018-04-26T04:59:19.585Z,16.02
2018-04-26T05:01:20.574Z,17.00
2018-04-26T05:03:21.519Z,19.40
2018-04-26T05:05:22.555Z,15.27
2018-04-26T05:07:23.649Z,16.90
2018-04-26T05:09:24.588Z,18.87
2018-04-26T05:11:26.109Z,18.17
2018-04-26T05:13:27.073Z,18.45
2018-04-26T05:15:28.457Z,18.87
2018-04-26T05:17:29.424Z,19.08
2018-04-26T05:19:30.387Z,18.20
2018-04-26T05:21:31.327Z,20.47
2018-04-26T05:23:32.652Z,18.90
2018-04-26T05:25:33.627Z,19.45
2018-04-26T05:27:34.940Z,18.23
2018-04-26T05:29:37.394Z,18.95
2018-04-26T05:31:38.623Z,19.23
2018-04-26T05:33:39.611Z,20.17
2018-04-26T05:35:40.543Z,20.70
2018-04-26T05:37:41.492Z,20.57
2018-04-26T05:39:42.451Z,21.53
2018-04-26T05:41:43.398Z,20.43
2018-04-26T05:43:44.376Z,20.53
2018-04-26T05:45:45.696Z,21.83
2018-04-26T05:47:47.048Z,19.77
2018-04-26T05:49:48.398Z,20.17
2018-04-26T05:51:49.730Z,20.60
2018-04-26T05:53:51.063Z,21.17
2018-04-26T05:55:52.469Z,21.55
2018-04-26T05:57:53.833Z,19.83
2018-04-26T05:59:54.794Z,19.80
2018-04-26T06:01:55.749Z,20.73
2018-04-26T06:03:57.177Z,18.90
2018-04-26T06:05:58.508Z,18.67
2018-04-26T06:07:59.843Z,18.12
2018-04-26T06:10:00.845Z,20.02
2018-04-26T06:12:01.801Z,17.80
2018-04-26T06:14:02.749Z,17.70
2018-04-26T06:16:03.716Z,18.73
2018-04-26T06:18:05.048Z,16.20
2018-04-26T06:20:06.386Z,16.40
2018-04-26T06:22:07.724Z,16.33
2018-04-26T06:24:09.048Z,16.55
2018-04-26T06:26:10.017Z,16.37
2018-04-26T06:28:11.356Z,16.80
2018-04-26T06:30:12.720Z,16.60
2018-04-26T06:32:13.697Z,16.60
2018-04-26T06:34:14.663Z,16.37
2018-04-26T06:36:15.628Z,16.20
2018-04-26T06:38:16.941Z,15.43
2018-04-26T06:40:18.272Z,17.30
2018-04-26T06:42:19.350Z,17.05
2018-04-26T06:44:20.288Z,16.45
2018-04-26T06:46:21.256Z,16.40
2018-04-26T06:48:22.505Z,15.73
2018-04-26T06:50:23.505Z,16.60
2018-04-26T06:52:24.464Z,17.90
2018-04-26T06:54:25.448Z,16.80
2018-04-26T06:56:26.776Z,14.97
2018-04-26T06:58:28.114Z,16.98
2018-04-26T07:00:29.139Z,15.90
2018-04-26T07:02:30.530Z,15.23
2018-04-26T07:04:31.472Z,14.60
2018-04-26T07:06:32.435Z,13.40
2018-04-26T07:08:33.385Z,13.80
2018-04-26T07:10:34.521Z,13.93
2018-04-26T07:12:35.487Z,14.10
2018-04-26T07:14:36.430Z,14.40
2018-04-26T07:16:37.371Z,15.03
2018-04-26T07:18:38.607Z,12.70
2018-04-26T07:20:39.589Z,12.77
2018-04-26T07:22:40.554Z,13.80
2018-04-26T07:24:41.929Z,13.10
2018-04-26T07:28:51.323Z,13.40
2018-04-26T07:30:52.305Z,21.90
2018-04-26T07:32:53.670Z,14.13
2018-04-26T07:34:54.672Z,12.33
2018-04-26T07:36:55.719Z,12.27
2018-04-26T07:38:56.707Z,12.47
2018-04-26T07:40:57.666Z,11.70
2018-04-26T07:42:59.102Z,12.97
2018-04-26T07:45:00.690Z,11.20
2018-04-26T07:47:01.923Z,12.07
2018-04-26T07:49:02.883Z,13.03
2018-04-26T07:51:04.186Z,12.80
2018-04-26T07:53:05.588Z,12.90
2018-04-26T07:55:06.950Z,10.70
2018-04-26T07:57:08.166Z,12.70
2018-04-26T07:59:09.107Z,12.07
2018-04-26T08:01:10.071Z,12.33
2018-04-26T08:03:11.419Z,11.47
2018-04-26T08:05:12.368Z,10.90
2018-04-26T08:07:13.328Z,11.00
2018-04-26T08:09:14.414Z,12.30
2018-04-26T08:11:15.727Z,11.50
2018-04-26T08:13:16.682Z,11.30
2018-04-26T08:15:17.646Z,10.90
2018-04-26T08:17:18.607Z,10.93
2018-04-26T08:19:19.559Z,11.57
2018-04-26T08:21:20.612Z,12.10
2018-04-26T08:23:21.580Z,11.00
2018-04-26T08:25:22.910Z,11.90
2018-04-26T08:27:24.244Z,11.27
2018-04-26T08:29:25.199Z,11.60
2018-04-26T08:31:26.529Z,10.77
2018-04-26T08:33:27.884Z,10.33
2018-04-26T08:35:29.199Z,10.97
2018-04-26T08:37:30.206Z,10.80
2018-04-26T08:39:31.185Z,10.30
2018-04-26T08:41:32.518Z,10.50
2018-04-26T08:43:33.474Z,10.43
2018-04-26T08:45:34.845Z,10.60
2018-04-26T08:47:35.879Z,11.00
2018-04-26T08:49:36.835Z,10.03
2018-04-26T08:51:37.796Z,11.07
2018-04-26T08:53:38.762Z,8.87
2018-04-26T08:55:40.168Z,10.00
2018-04-26T08:57:41.261Z,11.10
2018-04-26T08:59:42.234Z,8.90
2018-04-26T09:01:43.191Z,7.90
2018-04-26T09:03:44.156Z,7.90
2018-04-26T09:05:45.112Z,7.57
2018-04-26T09:07:46.086Z,8.90
2018-04-26T09:09:47.045Z,7.87
2018-04-26T09:11:48.364Z,8.93
2018-04-26T09:13:49.421Z,8.50
2018-04-26T09:15:50.821Z,7.80
2018-04-26T09:17:51.725Z,8.07
2018-04-26T09:19:52.727Z,8.13
2018-04-26T09:21:54.099Z,7.23
2018-04-26T09:23:55.048Z,7.30
2018-04-26T09:25:56.041Z,6.80
2018-04-26T09:27:57.371Z,6.90
2018-04-26T09:29:58.367Z,6.23
2018-04-26T09:31:59.647Z,6.10
2018-04-26T09:34:00.604Z,5.60
2018-04-26T09:36:01.967Z,6.73
2018-04-26T09:38:03.024Z,6.90
2018-04-26T09:40:04.081Z,6.40
2018-04-26T09:42:05.055Z,6.27
2018-04-26T09:44:06.382Z,6.57
2018-04-26T09:46:07.739Z,7.00
2018-04-26T09:48:09.085Z,6.27
2018-04-26T09:50:10.742Z,6.20
2018-04-26T09:52:11.712Z,8.43
2018-04-26T09:54:12.961Z,7.20
2018-04-26T09:56:14.748Z,6.67
2018-04-26T09:58:16.071Z,6.50
2018-04-26T10:00:23.046Z,6.63
2018-04-26T10:02:24.426Z,5.37
2018-04-26T10:04:25.392Z,4.45
2018-04-26T10:06:30.251Z,5.00
2018-04-26T10:08:31.590Z,3.80
2018-04-26T10:10:32.588Z,4.43
2018-04-26T10:12:33.555Z,3.90
2018-04-26T10:14:34.522Z,3.63
2018-04-26T10:16:35.860Z,4.20
2018-04-26T10:18:37.199Z,3.50
2018-04-26T10:20:38.562Z,3.72
2018-04-26T10:22:39.525Z,3.72
2018-04-26T10:24:40.485Z,4.27
2018-04-26T10:26:41.746Z,3.40
2018-04-26T10:28:42.943Z,4.07
2018-04-26T10:30:43.950Z,4.00
2018-04-26T10:32:44.899Z,4.00
2018-04-26T10:34:45.859Z,3.47
2018-04-26T10:36:46.813Z,4.70
2018-04-26T10:38:47.770Z,3.87
2018-04-26T10:40:48.717Z,3.80
2018-04-26T10:42:50.048Z,3.23
2018-04-26T10:44:51.391Z,3.90
2018-04-26T10:46:52.731Z,3.07
2018-04-26T10:48:53.680Z,3.80
2018-04-26T10:50:55.337Z,3.40
2018-04-26T10:52:56.332Z,3.47
2018-04-26T10:54:57.319Z,3.57
2018-04-26T10:56:58.314Z,3.30
2018-04-26T10:58:59.547Z,3.50
2018-04-26T11:01:00.504Z,3.70
2018-04-26T11:03:01.957Z,4.13
2018-04-26T11:05:03.313Z,4.50
2018-04-26T11:07:04.368Z,3.57
2018-04-26T11:09:05.349Z,4.10
2018-04-26T11:11:06.635Z,4.73
2018-04-26T11:13:07.630Z,4.50
2018-04-26T11:15:08.566Z,4.80
2018-04-26T11:17:09.573Z,6.30
2018-04-26T11:19:10.858Z,6.30
2018-04-26T11:21:12.183Z,6.00
2018-04-26T11:23:13.505Z,6.70
2018-04-26T11:25:14.482Z,6.43
2018-04-26T11:27:15.828Z,6.97
2018-04-26T11:29:16.901Z,4.60
2018-04-26T11:31:17.812Z,5.60
2018-04-26T11:33:18.790Z,5.90
2018-04-26T11:35:19.943Z,6.40
2018-04-26T11:37:20.949Z,6.40
2018-04-26T11:39:21.950Z,7.03
2018-04-26T11:41:22.954Z,6.87
2018-04-26T11:43:24.319Z,6.90
2018-04-26T11:45:25.280Z,7.27
2018-04-26T11:47:26.259Z,5.23
2018-04-26T11:49:27.199Z,4.50
2018-04-26T11:51:28.164Z,5.30
2018-04-26T11:53:29.224Z,4.90
2018-04-26T11:55:30.556Z,4.80
2018-04-26T11:57:31.517Z,4.87
2018-04-26T11:59:32.707Z,4.60
2018-04-26T12:01:33.671Z,4.13
2018-04-26T12:03:34.626Z,4.17
2018-04-26T12:05:35.616Z,4.20
2018-04-26T12:07:36.968Z,3.77
2018-04-26T12:09:37.894Z,3.60
2018-04-26T12:11:39.240Z,3.70
2018-04-26T12:13:40.207Z,4.20
2018-04-26T12:15:41.183Z,4.07
2018-04-26T12:17:42.142Z,3.63
2018-04-26T12:19:43.274Z,3.40
2018-04-26T12:21:44.601Z,3.50
2018-04-26T12:23:45.926Z,11.67
2018-04-26T12:25:47.048Z,7.80
2018-04-26T12:27:48.012Z,3.33
2018-04-26T12:29:48.961Z,2.80
2018-04-26T12:31:50.311Z,2.90
2018-04-26T12:33:52.530Z,2.80
2018-04-26T12:35:53.485Z,2.93
2018-04-26T12:37:54.424Z,2.70
2018-04-26T12:39:55.379Z,3.47
2018-04-26T12:41:56.352Z,2.47
2018-04-26T12:43:57.279Z,4.83
2018-04-26T12:45:58.240Z,3.43
2018-04-26T12:47:59.194Z,3.27
2018-04-26T12:50:00.146Z,3.13
2018-04-26T12:52:01.463Z,2.90
2018-04-26T12:54:02.445Z,3.00
2018-04-26T12:56:03.401Z,3.10
2018-04-26T12:58:04.442Z,2.90
2018-04-26T13:00:05.350Z,3.13
2018-04-26T13:02:06.324Z,3.00
2018-04-26T13:04:07.284Z,2.70
2018-04-26T13:06:09.010Z,2.67
2018-04-26T13:08:09.964Z,3.27
2018-04-26T13:10:10.932Z,2.70
2018-04-26T13:12:12.901Z,2.70
2018-04-26T13:14:13.859Z,2.70
2018-04-26T13:16:14.819Z,2.70
2018-04-26T13:18:15.767Z,2.50
2018-04-26T13:20:17.088Z,2.87
2018-04-26T13:22:18.049Z,2.43
2018-04-26T13:24:19.403Z,2.77
2018-04-26T13:26:20.363Z,2.60
2018-04-26T13:28:21.324Z,2.73
2018-04-26T13:30:23.483Z,3.20
2018-04-26T13:32:24.435Z,2.80
2018-04-26T13:34:25.385Z,2.60
2018-04-26T13:36:26.812Z,2.90
2018-04-26T13:38:28.049Z,3.30
2018-04-26T13:40:29.016Z,2.70
2018-04-26T13:42:30.497Z,3.10
2018-04-26T13:44:31.753Z,3.03
2018-04-26T13:46:32.720Z,2.90
2018-04-26T13:48:33.680Z,3.67
2018-04-26T13:50:34.634Z,3.23
2018-04-26T13:52:35.603Z,3.73
2018-04-26T13:54:36.552Z,4.10
2018-04-26T13:56:37.505Z,3.57
2018-04-26T13:58:38.889Z,4.00
2018-04-26T14:00:44.682Z,4.90
2018-04-26T14:02:45.666Z,5.30
2018-04-26T14:04:46.637Z,4.73
2018-04-26T14:06:47.610Z,5.33
2018-04-26T14:08:49.026Z,5.33
2018-04-26T14:10:50.387Z,5.27
2018-04-26T14:12:51.454Z,6.07
2018-04-26T14:14:52.410Z,4.83
2018-04-26T14:16:53.568Z,6.17
2018-04-26T14:18:54.526Z,5.30
2018-04-26T14:20:55.854Z,5.23
2018-04-26T14:22:56.824Z,4.97
2018-04-26T14:24:57.784Z,4.70
2018-04-26T14:26:58.743Z,4.37
2018-04-26T14:28:59.702Z,4.40
2018-04-26T14:31:01.069Z,4.60
2018-04-26T14:33:02.046Z,4.10
2018-04-26T14:35:03.033Z,4.00
2018-04-26T14:37:04.025Z,4.00
2018-04-26T14:39:04.955Z,3.80
2018-04-26T14:41:05.916Z,3.70
2018-04-26T14:43:07.290Z,3.57
2018-04-26T14:45:08.196Z,3.33
2018-04-26T14:47:09.506Z,3.77
2018-04-26T14:49:10.555Z,3.20
2018-04-26T14:51:11.544Z,3.77
2018-04-26T14:53:12.488Z,4.03
2018-04-26T14:55:13.450Z,4.10
2018-04-26T14:57:14.417Z,4.00
2018-04-26T14:59:15.752Z,3.87
2018-04-26T15:01:17.083Z,3.80
2018-04-26T15:03:18.175Z,3.87
2018-04-26T15:05:19.180Z,3.60
2018-04-26T15:07:20.066Z,4.10
2018-04-26T15:09:21.034Z,3.63
2018-04-26T15:11:22.356Z,3.70
2018-04-26T15:13:23.329Z,4.50
2018-04-26T15:15:24.603Z,4.37
2018-04-26T15:17:25.886Z,4.40
2018-04-26T15:19:26.838Z,4.00
2018-04-26T15:21:28.313Z,4.40
2018-04-26T15:23:29.713Z,4.30
2018-04-26T15:25:30.651Z,4.50
2018-04-26T15:27:32.050Z,3.80
2018-04-26T15:29:33.007Z,3.80
2018-04-26T15:31:33.962Z,4.20
2018-04-26T15:33:34.990Z,4.00
2018-04-26T15:35:35.895Z,3.90
2018-04-26T15:37:36.849Z,4.93
2018-04-26T15:39:37.819Z,4.20
2018-04-26T15:41:39.163Z,4.53
2018-04-26T15:43:40.619Z,3.90
2018-04-26T15:45:41.578Z,3.53
2018-04-26T15:47:42.547Z,3.23
2018-04-26T15:49:43.525Z,3.50
2018-04-26T15:51:46.090Z,15.57
2018-04-26T15:53:59.306Z,7.20
2018-04-26T15:56:12.583Z,3.97
2018-04-26T16:01:12.874Z,3.80
2018-04-26T16:03:26.219Z,4.03
2018-04-26T16:05:39.949Z,9.23
2018-04-26T16:07:59.426Z,5.13
2018-04-26T16:13:01.080Z,5.60
2018-04-26T16:15:14.412Z,4.60
2018-04-26T16:17:33.978Z,4.30
2018-04-26T16:19:53.402Z,4.43
2018-04-26T16:25:06.208Z,4.17
2018-04-26T16:27:25.812Z,3.83
2018-04-26T16:29:40.435Z,4.30
2018-04-26T16:32:00.164Z,4.10
2018-04-26T16:34:13.591Z,4.17
2018-04-26T16:36:27.188Z,4.30
2018-04-26T16:38:41.015Z,4.10
2018-04-26T16:40:42.211Z,4.50
2018-04-26T16:42:43.353Z,4.73
2018-04-26T16:44:44.342Z,5.10
2018-04-26T16:46:45.706Z,4.70
2018-04-26T16:48:46.711Z,5.43
2018-04-26T16:50:47.686Z,5.50
2018-04-26T16:52:48.655Z,5.30
2018-04-26T16:54:49.662Z,5.17
2018-04-26T16:56:50.651Z,4.90
2018-04-26T16:58:51.734Z,4.90
2018-04-26T17:01:01.455Z,5.23
2018-04-26T17:03:02.442Z,4.77
2018-04-26T17:05:03.412Z,4.73
2018-04-26T17:07:04.808Z,4.90
2018-04-26T17:09:05.794Z,4.90
2018-04-26T17:11:07.173Z,4.47
2018-04-26T17:13:08.150Z,5.13
2018-04-26T17:15:09.126Z,13.47
2018-04-26T17:17:10.114Z,8.53
2018-04-26T17:19:11.091Z,7.33
2018-04-26T17:21:12.074Z,6.00
2018-04-26T17:23:13.109Z,4.93
2018-04-26T17:25:14.104Z,6.13
2018-04-26T17:27:15.074Z,4.43
2018-04-26T17:29:16.066Z,4.80
2018-04-26T17:31:17.042Z,4.30
2018-04-26T17:33:18.027Z,4.37
2018-04-26T17:35:19.772Z,4.07
2018-04-26T17:37:21.135Z,4.60
2018-04-26T17:39:22.143Z,4.57
2018-04-26T17:41:23.491Z,4.87
2018-04-26T17:43:24.837Z,5.30
2018-04-26T17:45:26.207Z,4.53
2018-04-26T17:47:27.227Z,7.33
2018-04-26T17:49:28.173Z,4.13
2018-04-26T17:51:29.118Z,5.63
2018-04-26T17:53:30.391Z,3.67
2018-04-26T17:55:31.342Z,4.97
2018-04-26T17:57:32.293Z,3.50
2018-04-26T17:59:33.626Z,4.10
2018-04-26T18:01:34.573Z,4.33
2018-04-26T18:03:35.886Z,4.23
2018-04-26T18:05:36.935Z,3.57
2018-04-26T18:07:37.882Z,4.00
2018-04-26T18:09:39.209Z,4.00
2018-04-26T18:11:40.170Z,4.47
2018-04-26T18:13:41.482Z,4.13
2018-04-26T18:15:42.439Z,4.23
2018-04-26T18:17:43.773Z,3.87
2018-04-26T18:19:45.139Z,4.00
2018-04-26T18:21:46.034Z,20.17
2018-04-26T18:23:46.970Z,16.47
2018-04-26T18:25:47.917Z,7.83
2018-04-26T18:27:48.860Z,5.33
2018-04-26T18:29:50.230Z,8.07
2018-04-26T18:31:51.203Z,18.27
2018-04-26T18:33:52.162Z,28.80
2018-04-26T18:35:53.248Z,10.07
2018-04-26T18:37:55.799Z,6.47
2018-04-26T18:39:56.811Z,6.57
2018-04-26T18:41:58.192Z,6.40
2018-04-26T18:43:59.166Z,14.50
2018-04-26T18:46:00.150Z,7.80
2018-04-26T18:48:01.135Z,6.20
2018-04-26T18:50:02.330Z,4.60
2018-04-26T18:52:03.326Z,4.60
2018-04-26T18:54:04.687Z,4.30
2018-04-26T18:56:06.066Z,4.60
2018-04-26T18:58:07.105Z,5.20
2018-04-26T19:00:08.102Z,4.40
2018-04-26T19:02:09.506Z,4.93
2018-04-26T19:04:10.510Z,4.77
2018-04-26T19:06:11.515Z,4.60
2018-04-26T19:08:12.890Z,4.20
2018-04-26T19:10:13.957Z,4.63
2018-04-26T19:12:14.934Z,4.23
2018-04-26T19:14:16.307Z,4.50
2018-04-26T19:16:17.281Z,4.67
2018-04-26T19:18:18.259Z,4.70
2018-04-26T19:20:19.423Z,4.60
2018-04-26T19:22:20.379Z,5.33
2018-04-26T19:24:26.950Z,4.93
2018-04-26T19:26:27.945Z,5.17
2018-04-26T19:28:28.901Z,4.37
2018-04-26T19:30:29.878Z,4.77
2018-04-26T19:32:31.354Z,4.73
2018-04-26T19:34:32.409Z,5.73
2018-04-26T19:36:33.370Z,5.90
2018-04-26T19:38:34.484Z,5.70
2018-04-26T19:40:35.869Z,4.47
2018-04-26T19:42:36.873Z,5.13
2018-04-26T19:44:37.864Z,5.63
2018-04-26T19:46:39.449Z,5.10
2018-04-26T19:48:40.431Z,4.87
2018-04-26T19:50:41.798Z,5.40
2018-04-26T19:52:42.810Z,5.07
2018-04-26T19:54:43.814Z,5.47
2018-04-26T19:56:44.827Z,5.12
2018-04-26T19:58:45.858Z,4.70
2018-04-26T20:00:46.876Z,4.63
2018-04-26T20:02:48.031Z,4.80
2018-04-26T20:04:49.025Z,5.00
2018-04-26T20:06:50.358Z,5.60
2018-04-26T20:08:51.758Z,5.53
2018-04-26T20:10:52.717Z,4.83
2018-04-26T20:12:53.702Z,5.57
2018-04-26T20:14:54.850Z,6.17
2018-04-26T20:16:55.820Z,5.97
2018-04-26T20:18:56.806Z,6.10
2018-04-26T20:20:57.794Z,5.17
2018-04-26T20:22:58.762Z,4.97
2018-04-26T20:25:00.114Z,6.27
2018-04-26T20:27:01.356Z,6.25
2018-04-26T20:29:02.347Z,5.40
2018-04-26T20:31:03.335Z,6.23
2018-04-26T20:33:04.545Z,6.10
2018-04-26T20:35:05.930Z,7.10
2018-04-26T20:37:06.983Z,6.45
2018-04-26T20:39:08.049Z,6.10
2018-04-26T20:41:09.063Z,6.87
2018-04-26T20:43:10.068Z,7.10
2018-04-26T20:45:11.133Z,7.00
2018-04-26T20:47:12.282Z,7.20
2018-04-26T20:49:13.271Z,6.85
2018-04-26T20:51:14.230Z,6.20
2018-04-26T20:53:15.213Z,6.90
2018-04-26T20:55:16.547Z,6.27
2018-04-26T20:57:17.550Z,7.28
2018-04-26T20:59:18.522Z,7.25
2018-04-26T21:01:19.501Z,8.10
2018-04-26T21:03:20.474Z,8.77
2018-04-26T21:05:21.425Z,8.30
2018-04-26T21:07:22.431Z,8.20
2018-04-26T21:09:23.451Z,8.75
2018-04-26T21:11:24.430Z,8.65
2018-04-26T21:13:25.390Z,8.77
2018-04-26T21:15:26.740Z,8.80
2018-04-26T21:17:27.720Z,8.07
2018-04-26T21:19:28.712Z,8.97
2018-04-26T21:21:29.713Z,9.27
2018-04-26T21:23:30.683Z,8.85
2018-04-26T21:25:31.667Z,8.47
2018-04-26T21:27:32.659Z,7.73
2018-04-26T21:29:33.603Z,8.63
2018-04-26T21:31:34.936Z,9.82
2018-04-26T21:33:35.930Z,8.45
2018-04-26T21:35:36.981Z,7.90
2018-04-26T21:37:37.798Z,9.20
2018-04-26T21:39:38.782Z,7.70
2018-04-26T21:41:39.734Z,8.10
2018-04-26T21:43:40.675Z,7.63
2018-04-26T21:45:41.655Z,7.73
2018-04-26T21:47:42.587Z,7.40
2018-04-26T21:49:43.853Z,8.03
2018-04-26T21:51:50.892Z,7.90
2018-04-26T21:53:57.931Z,7.37
2018-04-26T21:56:05.120Z,7.53
2018-04-26T21:58:12.298Z,7.05
2018-04-26T22:00:19.378Z,7.20
2018-04-26T22:02:22.241Z,7.68
2018-04-26T22:28:25.930Z,6.80
2018-04-26T22:30:27.266Z,6.50
2018-04-26T22:32:28.200Z,7.28
2018-04-26T22:34:29.158Z,7.20
2018-04-26T22:36:30.469Z,7.40
2018-04-26T22:38:31.430Z,6.78
2018-04-26T22:40:32.755Z,6.97
2018-04-26T22:42:34.061Z,6.30
2018-04-26T22:44:35.453Z,6.70
2018-04-26T22:46:36.962Z,8.27
2018-04-26T22:48:37.919Z,7.20
2018-04-26T22:50:38.861Z,6.37
2018-04-26T22:52:40.190Z,6.53
2018-04-26T22:54:41.137Z,8.25
2018-04-26T22:56:43.015Z,5.80
2018-04-26T22:58:43.989Z,6.80
2018-04-26T23:00:44.941Z,7.43
2018-04-26T23:02:45.889Z,6.40
2018-04-26T23:04:46.844Z,5.80
2018-04-26T23:06:48.177Z,6.80
2018-04-26T23:08:49.498Z,6.62
2018-04-26T23:10:50.445Z,6.18
2018-04-26T23:12:51.393Z,6.10
2018-04-26T23:14:52.736Z,5.73
2018-04-26T23:16:54.042Z,5.90
2018-04-26T23:18:54.975Z,6.47
2018-04-26T23:20:55.938Z,6.07
2018-04-26T23:22:57.237Z,5.93
2018-04-26T23:24:58.330Z,7.05
2018-04-26T23:26:59.671Z,6.20
2018-04-26T23:29:00.981Z,6.43
2018-04-26T23:31:01.951Z,6.07
2018-04-26T23:33:03.261Z,5.90
2018-04-26T23:35:04.215Z,6.70
2018-04-26T23:37:05.576Z,6.10
2018-04-26T23:39:06.528Z,6.10
2018-04-26T23:41:07.478Z,5.70
2018-04-26T23:43:08.455Z,6.20
2018-04-26T23:45:09.774Z,6.10
2018-04-26T23:47:10.716Z,6.12
2018-04-26T23:49:11.778Z,5.63
2018-04-26T23:51:13.137Z,5.87
2018-04-26T23:53:14.158Z,5.70
2018-04-26T23:55:15.481Z,5.30
2018-04-26T23:57:16.492Z,5.37
2018-04-26T23:59:17.456Z,6.07
